createdAt,value
2023-04-02T00:02:34.156Z,19.17
2023-04-02T00:06:45.316Z,19.90
2023-04-02T00:10:50.427Z,20.02
2023-04-02T00:14:54.765Z,19.71
2023-04-02T00:19:01.364Z,20.08
2023-04-02T00:23:03.492Z,20.00
2023-04-02T00:27:10.292Z,20.30
2023-04-02T00:31:12.253Z,19.77
2023-04-02T00:35:23.008Z,19.45
2023-04-02T00:39:28.448Z,19.72
2023-04-02T00:43:34.628Z,19.63
2023-04-02T00:47:40.163Z,19.12
2023-04-02T00:51:54.516Z,19.44
2023-04-02T00:55:58.880Z,19.26
2023-04-02T01:00:12.021Z,18.71
2023-04-02T01:04:56.958Z,17.99
2023-04-02T01:09:44.007Z,17.30
2023-04-02T01:14:13.551Z,18.01
2023-04-02T01:18:46.269Z,16.83
2023-04-02T01:22:55.749Z,17.70
2023-04-02T01:27:14.011Z,16.34
2023-04-02T01:31:16.431Z,16.66
2023-04-02T01:35:18.122Z,16.64
2023-04-02T01:39:19.388Z,16.86
2023-04-02T01:43:26.173Z,17.31
2023-04-02T01:47:29.572Z,16.93
2023-04-02T01:51:33.835Z,16.07
2023-04-02T01:55:48.756Z,16.84
2023-04-02T01:59:50.336Z,16.47
2023-04-02T02:03:52.910Z,16.68
2023-04-02T02:07:57.157Z,16.88
2023-04-02T02:11:59.863Z,17.15
2023-04-02T02:16:03.194Z,16.50
2023-04-02T02:20:11.252Z,16.58
2023-04-02T02:24:21.120Z,17.05
2023-04-02T02:28:31.208Z,16.17
2023-04-02T02:32:34.139Z,16.33
2023-04-02T02:36:49.034Z,15.15
2023-04-02T02:40:59.924Z,16.46
2023-04-02T02:45:05.287Z,16.68
2023-04-02T02:49:07.679Z,16.86
2023-04-02T02:53:24.957Z,15.89
2023-04-02T02:57:31.845Z,15.37
2023-04-02T03:01:33.602Z,16.11
2023-04-02T03:05:36.066Z,15.42
2023-04-02T03:09:54.298Z,15.43
2023-04-02T03:14:08.092Z,16.77
2023-04-02T03:18:16.242Z,15.65
2023-04-02T03:22:32.054Z,16.05
2023-04-02T03:26:40.624Z,14.59
2023-04-02T03:30:51.036Z,14.86
2023-04-02T03:34:57.725Z,15.31
2023-04-02T03:39:19.445Z,14.68
2023-04-02T03:43:25.415Z,15.75
2023-04-02T03:47:40.076Z,16.72
2023-04-02T03:51:57.972Z,14.03
2023-04-02T03:56:01.008Z,16.50
2023-04-02T04:00:45.415Z,15.65
2023-04-02T04:04:48.776Z,15.85
2023-04-02T04:08:59.203Z,15.79
2023-04-02T04:13:12.827Z,14.29
2023-04-02T04:17:30.373Z,14.52
2023-04-02T04:21:37.287Z,15.48
2023-04-02T04:25:40.102Z,14.39
2023-04-02T04:29:57.704Z,15.09
2023-04-02T04:34:05.605Z,13.75
2023-04-02T04:38:09.937Z,15.07
2023-04-02T04:42:22.981Z,15.13
2023-04-02T04:46:30.919Z,14.84
2023-04-02T04:50:38.184Z,15.35
2023-04-02T04:54:39.825Z,14.93
2023-04-02T04:58:46.207Z,14.94
2023-04-02T05:02:54.208Z,13.63
2023-04-02T05:07:09.208Z,14.59
2023-04-02T05:11:19.488Z,13.60
2023-04-02T05:15:30.171Z,14.34
2023-04-02T05:19:42.180Z,14.17
2023-04-02T05:23:52.651Z,15.05
2023-04-02T05:28:17.708Z,14.48
2023-04-02T05:32:25.841Z,14.24
2023-04-02T05:36:30.022Z,13.20
2023-04-02T05:40:46.270Z,13.65
2023-04-02T05:45:19.155Z,15.25
2023-04-02T05:49:28.787Z,15.13
2023-04-02T05:53:30.101Z,14.49
2023-04-02T05:57:44.534Z,14.94
2023-04-02T06:01:58.862Z,14.35
2023-04-02T06:06:06.795Z,13.74
2023-04-02T06:10:11.866Z,13.63
2023-04-02T06:14:14.871Z,13.88
2023-04-02T06:18:25.611Z,14.16
2023-04-02T06:22:38.138Z,15.16
2023-04-02T06:26:43.388Z,14.84
2023-04-02T06:30:45.811Z,14.73
2023-04-02T06:34:47.235Z,14.22
2023-04-02T06:38:50.780Z,15.17
2023-04-02T06:42:59.428Z,15.25
2023-04-02T06:47:11.301Z,15.82
2023-04-02T06:51:17.589Z,14.82
2023-04-02T06:55:47.132Z,14.05
2023-04-02T06:59:51.086Z,14.06
2023-04-02T07:03:52.957Z,13.99
2023-04-02T07:07:54.420Z,12.48
2023-04-02T07:11:55.824Z,14.58
2023-04-02T07:15:57.316Z,13.28
2023-04-02T07:19:59.095Z,13.63
2023-04-02T07:24:00.608Z,12.70
2023-04-02T07:28:01.947Z,13.25
2023-04-02T07:32:03.323Z,13.26
2023-04-02T07:36:05.004Z,13.55
2023-04-02T07:40:15.507Z,13.96
2023-04-02T07:44:16.979Z,13.02
2023-04-02T07:48:18.545Z,13.87
2023-04-02T07:52:21.601Z,14.68
2023-04-02T07:56:24.923Z,14.50
2023-04-02T08:00:28.541Z,14.94
2023-04-02T08:04:30.286Z,13.57
2023-04-02T08:08:31.743Z,14.64
2023-04-02T08:12:33.213Z,14.33
2023-04-02T08:16:49.243Z,14.16
2023-04-02T08:20:50.941Z,14.33
2023-04-02T08:24:52.330Z,14.55
2023-04-02T08:28:53.700Z,14.80
2023-04-02T08:32:55.214Z,13.54
2023-04-02T08:36:58.057Z,13.75
2023-04-02T08:41:02.704Z,15.06
2023-04-02T08:45:27.882Z,15.11
2023-04-02T08:49:35.841Z,13.61
2023-04-02T08:53:39.112Z,14.33
2023-04-02T08:57:57.488Z,14.15
2023-04-02T09:02:21.220Z,14.87
2023-04-02T09:06:22.943Z,13.14
2023-04-02T09:10:37.132Z,14.04
2023-04-02T09:14:59.946Z,14.19
2023-04-02T09:19:02.115Z,14.54
2023-04-02T09:23:03.591Z,15.86
2023-04-02T09:27:17.883Z,15.30
2023-04-02T09:31:30.613Z,13.82
2023-04-02T09:35:37.084Z,15.41
2023-04-02T09:39:38.529Z,15.05
2023-04-02T09:43:40.012Z,15.32
2023-04-02T09:47:42.454Z,15.15
2023-04-02T09:51:43.938Z,13.20
2023-04-02T09:55:45.308Z,13.55
2023-04-02T09:59:46.706Z,14.14
2023-04-02T10:03:48.121Z,15.25
2023-04-02T10:07:52.972Z,14.53
2023-04-02T10:11:55.783Z,15.04
2023-04-02T10:16:07.049Z,14.77
2023-04-02T10:20:21.017Z,13.29
2023-04-02T10:24:23.300Z,15.16
2023-04-02T10:28:42.897Z,14.77
2023-04-02T10:32:57.570Z,13.57
2023-04-02T10:37:11.104Z,14.68
2023-04-02T10:41:34.919Z,15.58
2023-04-02T10:45:49.985Z,15.50
2023-04-02T10:50:06.768Z,15.79
2023-04-02T10:54:27.995Z,15.69
2023-04-02T10:58:35.274Z,15.68
2023-04-02T11:03:08.124Z,15.60
2023-04-02T11:07:17.203Z,15.83
2023-04-02T11:11:27.690Z,16.03
2023-04-02T11:15:32.981Z,16.05
2023-04-02T11:19:36.010Z,16.02
2023-04-02T11:23:57.037Z,15.55
2023-04-02T11:28:13.805Z,16.45
2023-04-02T11:32:25.285Z,15.66
2023-04-02T11:36:54.864Z,15.03
2023-04-02T11:40:56.825Z,16.13
2023-04-02T11:45:24.530Z,16.14
2023-04-02T11:49:32.190Z,14.52
2023-04-02T11:53:34.951Z,15.93
2023-04-02T11:57:45.306Z,15.32
2023-04-02T12:02:24.592Z,17.16
2023-04-02T12:07:26.765Z,15.55
2023-04-02T12:11:40.272Z,16.01
2023-04-02T12:15:46.357Z,16.17
2023-04-02T12:19:53.588Z,15.96
2023-04-02T12:23:58.714Z,15.41
2023-04-02T12:28:10.650Z,16.16
2023-04-02T12:32:27.690Z,16.18
2023-04-02T12:36:31.766Z,16.48
2023-04-02T12:40:33.069Z,14.76
2023-04-02T12:44:34.459Z,16.17
2023-04-02T12:48:36.357Z,14.38
2023-04-02T12:52:45.184Z,14.66
2023-04-02T12:56:50.654Z,17.84
2023-04-02T13:00:52.260Z,14.61
2023-04-02T13:04:55.931Z,15.49
2023-04-02T13:08:58.734Z,15.65
2023-04-02T13:13:03.177Z,15.75
2023-04-02T13:17:44.543Z,15.17
2023-04-02T13:21:46.207Z,15.91
2023-04-02T13:25:47.900Z,15.81
2023-04-02T13:29:52.255Z,16.39
2023-04-02T13:33:53.593Z,14.28
2023-04-02T13:37:54.959Z,14.38
2023-04-02T13:41:58.696Z,15.68
2023-04-02T13:46:02.225Z,14.85
2023-04-02T13:50:03.718Z,16.74
2023-04-02T13:54:15.926Z,16.20
2023-04-02T13:58:18.913Z,15.88
2023-04-02T14:02:24.559Z,15.82
2023-04-02T14:06:44.602Z,17.29
2023-04-02T14:11:04.511Z,15.75
2023-04-02T14:15:24.059Z,16.33
2023-04-02T14:19:43.584Z,16.39
2023-04-02T14:24:08.812Z,16.01
2023-04-02T14:28:16.688Z,16.25
2023-04-02T14:32:33.067Z,16.23
2023-04-02T14:36:34.385Z,15.29
2023-04-02T14:40:52.531Z,15.85
2023-04-02T14:45:29.120Z,16.45
2023-04-02T14:49:39.564Z,15.87
2023-04-02T14:54:07.306Z,16.13
2023-04-02T14:58:18.760Z,16.32
2023-04-02T15:02:30.467Z,15.84
2023-04-02T15:06:37.853Z,15.53
2023-04-02T15:10:47.728Z,14.74
2023-04-02T15:14:55.772Z,14.07
2023-04-02T15:19:01.743Z,14.74
2023-04-02T15:23:19.852Z,14.66
2023-04-02T15:27:56.018Z,15.05
2023-04-02T15:32:17.338Z,15.79
2023-04-02T15:36:39.545Z,15.19
2023-04-02T15:41:00.360Z,15.07
2023-04-02T15:45:08.210Z,15.17
2023-04-02T15:49:20.094Z,15.46
2023-04-02T15:53:39.019Z,15.53
2023-04-02T15:58:13.980Z,15.06
2023-04-02T16:02:46.256Z,15.27
2023-04-02T16:07:19.043Z,15.60
2023-04-02T16:11:21.026Z,14.59
2023-04-02T16:15:30.447Z,15.52
2023-04-02T16:19:52.778Z,13.98
2023-04-02T16:23:54.155Z,13.58
2023-04-02T16:28:13.704Z,15.98
2023-04-02T16:32:18.026Z,14.18
2023-04-02T16:36:25.444Z,15.48
2023-04-02T16:40:31.938Z,15.23
2023-04-02T16:44:57.312Z,14.19
2023-04-02T16:49:12.243Z,14.70
2023-04-02T16:53:33.953Z,15.14
2023-04-02T16:57:57.462Z,14.31
2023-04-02T17:02:09.231Z,13.76
2023-04-02T17:06:23.960Z,15.50
2023-04-02T17:10:30.735Z,15.44
2023-04-02T17:14:42.313Z,14.98
2023-04-02T17:18:47.355Z,16.06
2023-04-02T17:22:49.206Z,15.90
2023-04-02T17:27:12.341Z,15.10
2023-04-02T17:31:19.315Z,15.39
2023-04-02T17:35:59.383Z,15.93
2023-04-02T17:40:22.020Z,15.78
2023-04-02T17:44:46.371Z,14.76
2023-04-02T17:48:52.256Z,14.56
2023-04-02T17:53:11.064Z,15.72
2023-04-02T17:57:30.880Z,15.28
2023-04-02T18:01:38.301Z,15.12
2023-04-02T18:05:45.641Z,15.35
2023-04-02T18:09:56.129Z,16.32
2023-04-02T18:14:13.096Z,15.42
2023-04-02T18:18:34.398Z,15.38
2023-04-02T18:22:46.977Z,15.68
2023-04-02T18:27:15.433Z,15.35
2023-04-02T18:31:27.939Z,14.21
2023-04-02T18:36:05.121Z,16.05
2023-04-02T18:40:40.248Z,15.73
2023-04-02T18:44:58.387Z,15.98
2023-04-02T18:49:26.599Z,16.29
2023-04-02T18:53:31.015Z,16.69
2023-04-02T18:57:35.989Z,15.19
2023-04-02T19:05:57.335Z,15.15
2023-04-02T19:10:07.335Z,14.78
2023-04-02T19:14:12.598Z,15.90
2023-04-02T19:18:49.244Z,15.18
2023-04-02T19:23:00.130Z,15.50
2023-04-02T19:27:27.138Z,14.64
2023-04-02T19:31:43.793Z,15.00
2023-04-02T19:35:57.291Z,14.85
2023-04-02T19:40:11.528Z,14.17
2023-04-02T19:44:16.197Z,15.89
2023-04-02T19:48:24.633Z,14.16
2023-04-02T19:52:27.270Z,15.71
2023-04-02T19:56:28.584Z,14.93
2023-04-02T20:00:30.038Z,15.17
2023-04-02T20:04:31.551Z,15.31
2023-04-02T20:08:33.188Z,16.06
2023-04-02T20:12:34.534Z,15.63
2023-04-02T20:16:36.914Z,16.25
2023-04-02T20:20:39.212Z,15.47
2023-04-02T20:24:42.537Z,15.77
2023-04-02T20:28:43.864Z,15.41
2023-04-02T20:32:45.728Z,16.37
2023-04-02T20:36:51.496Z,15.77
2023-04-02T20:40:54.774Z,15.96
2023-04-02T20:44:56.100Z,16.10
2023-04-02T20:48:59.107Z,15.84
2023-04-02T20:53:00.892Z,16.04
2023-04-02T20:57:02.978Z,15.82
2023-04-02T21:01:22.840Z,15.10
2023-04-02T21:05:24.297Z,15.79
2023-04-02T21:09:25.690Z,15.71
2023-04-02T21:13:30.348Z,15.41
2023-04-02T21:17:31.728Z,15.71
2023-04-02T21:21:33.438Z,15.60
2023-04-02T21:25:35.068Z,14.89
2023-04-02T21:29:36.634Z,15.46
2023-04-02T21:33:40.904Z,15.18
2023-04-02T21:37:44.147Z,15.39
2023-04-02T21:41:49.943Z,15.47
2023-04-02T21:45:52.044Z,15.49
2023-04-02T21:49:53.344Z,15.29
2023-04-02T21:53:55.578Z,15.24
2023-04-02T21:57:56.877Z,15.17
2023-04-02T22:01:58.459Z,15.07
2023-04-02T22:06:02.223Z,14.92
2023-04-02T22:10:03.887Z,15.21
2023-04-02T22:14:05.844Z,14.77
2023-04-02T22:18:07.199Z,15.30
2023-04-02T22:22:08.625Z,15.21
2023-04-02T22:26:11.902Z,15.29
2023-04-02T22:30:13.445Z,15.46
2023-04-02T22:34:15.021Z,15.57
2023-04-02T22:38:16.349Z,15.51
2023-04-02T22:42:17.685Z,14.91
2023-04-02T22:46:20.297Z,15.32
2023-04-02T22:50:21.864Z,15.40
2023-04-02T22:54:23.249Z,15.46
2023-04-02T22:58:26.469Z,15.40
2023-04-02T23:02:27.831Z,14.31
2023-04-02T23:06:29.353Z,13.91
2023-04-02T23:10:31.015Z,14.27
2023-04-02T23:14:32.420Z,13.88
2023-04-02T23:18:37.974Z,13.86
2023-04-02T23:22:39.334Z,14.18
2023-04-02T23:26:40.769Z,14.55
2023-04-02T23:30:43.348Z,14.38
2023-04-02T23:34:44.739Z,15.20
2023-04-02T23:38:46.053Z,14.59
2023-04-02T23:42:47.397Z,13.32
2023-04-02T23:46:48.757Z,14.72
2023-04-02T23:50:50.285Z,13.97
2023-04-02T23:54:51.663Z,14.19
2023-04-02T23:58:53.052Z,13.90
